Time;durP1;ratioP1;P1;durP2;ratioP2;P2;SDS_P1;SDS_P2;PMS_P1;PMS_P2;Temp;Humidity;BMP_temperature;BMP_pressure;BME280_temperature;BME280_humidity;BME280_pressure;Samples;Min_cycle;Max_cycle;Signal;HPM_P1;HPM_P2
2022/06/06 00:00:25;;;;;;;38.53;30.88;;;17.40;99.90;;;;;;5031067;28;20653;-78
2022/06/06 00:02:53;;;;;;;42.45;31.33;;;17.40;99.90;;;;;;5030239;28;20214;-78
2022/06/06 00:05:20;;;;;;;41.08;31.30;;;17.40;99.90;;;;;;5031258;28;20198;-78
2022/06/06 00:07:48;;;;;;;41.67;31.75;;;17.40;99.90;;;;;;5032451;28;20206;-78
2022/06/06 00:10:17;;;;;;;55.03;39.25;;;17.40;99.90;;;;;;5028969;28;20688;-78
2022/06/06 00:12:44;;;;;;;62.58;43.08;;;17.20;99.90;;;;;;5033438;28;20241;-78
2022/06/06 00:15:14;;;;;;;59.83;42.53;;;17.10;99.90;;;;;;5030533;28;20227;-78
2022/06/06 00:17:41;;;;;;;67.80;45.95;;;17.00;99.90;;;;;;5035791;28;20206;-78
2022/06/06 00:20:10;;;;;;;70.55;47.75;;;16.90;99.90;;;;;;5030155;28;20210;-78
2022/06/06 00:22:38;;;;;;;71.32;45.78;;;16.80;99.90;;;;;;5030913;28;20696;-78
2022/06/06 00:25:07;;;;;;;77.60;48.45;;;16.70;99.90;;;;;;5034645;28;20200;-78
2022/06/06 00:27:35;;;;;;;73.20;48.97;;;16.50;99.90;;;;;;5034121;28;20207;-78
2022/06/06 00:30:04;;;;;;;83.10;51.70;;;16.50;99.90;;;;;;5030744;28;20188;-78
2022/06/06 00:35:16;;;;;;;80.38;53.63;;;16.40;99.90;;;;;;5026194;28;20656;-78
2022/06/06 00:37:44;;;;;;;76.97;47.58;;;16.50;99.90;;;;;;5026769;28;20200;-78
2022/06/06 00:40:12;;;;;;;86.05;53.88;;;16.60;99.90;;;;;;5059851;28;20199;-78
2022/06/06 00:42:43;;;;;;;82.00;51.63;;;16.50;99.90;;;;;;5031910;28;20219;-79
2022/06/06 00:45:31;;;;;;;85.00;52.85;;;16.50;99.90;;;;;;5030774;28;20218;-78
2022/06/06 00:48:10;;;;;;;87.28;52.08;;;16.50;99.90;;;;;;5035840;28;20203;-78
2022/06/06 00:50:46;;;;;;;77.85;51.95;;;16.40;99.90;;;;;;5027853;28;20564;-78
2022/06/06 00:53:16;;;;;;;73.93;50.60;;;16.30;99.90;;;;;;5060429;28;20229;-78
2022/06/06 00:55:49;;;;;;;76.72;48.28;;;16.30;99.90;;;;;;5022093;28;20238;-78
2022/06/06 00:58:22;;;;;;;73.57;46.15;;;16.30;99.90;;;;;;5022407;28;20203;-78
2022/06/06 01:01:06;;;;;;;75.85;48.08;;;16.30;99.90;;;;;;5019066;28;20203;-78
2022/06/06 01:03:38;;;;;;;71.35;46.90;;;16.30;99.90;;;;;;5026638;28;20334;-78
2022/06/06 01:06:08;;;;;;;76.60;48.75;;;16.30;99.90;;;;;;5026143;28;20187;-78
2022/06/06 01:08:38;;;;;;;73.90;47.47;;;16.30;99.90;;;;;;5031986;28;20218;-78
2022/06/06 01:11:06;;;;;;;68.00;44.47;;;16.30;99.90;;;;;;5029424;28;20680;-78
2022/06/06 01:13:36;;;;;;;70.72;47.33;;;16.20;99.90;;;;;;5033841;28;20234;-78
2022/06/06 01:16:17;;;;;;;61.38;43.28;;;16.20;99.90;;;;;;5029211;28;20207;-78
2022/06/06 01:18:57;;;;;;;64.18;42.08;;;16.20;99.90;;;;;;5062896;28;20206;-78
2022/06/06 01:21:49;;;;;;;64.57;42.67;;;16.20;99.90;;;;;;5030475;28;20266;-78
2022/06/06 01:24:46;;;;;;;60.83;39.45;;;16.20;99.90;;;;;;5004583;28;20206;-78
2022/06/06 01:27:37;;;;;;;60.78;40.30;;;16.20;99.90;;;;;;4989159;28;20194;-78
2022/06/06 01:30:10;;;;;;;56.55;38.50;;;16.20;99.90;;;;;;5026723;28;20205;-80
2022/06/06 01:32:42;;;;;;;58.58;39.67;;;16.10;99.90;;;;;;5042334;28;20218;-78
2022/06/06 01:35:10;;;;;;;57.03;38.17;;;16.10;99.90;;;;;;5026339;28;20210;-78
2022/06/06 01:37:41;;;;;;;52.13;36.40;;;16.20;99.90;;;;;;5025694;28;20211;-78
2022/06/06 01:40:12;;;;;;;53.20;35.20;;;16.20;99.90;;;;;;5043438;28;20286;-78
2022/06/06 01:42:47;;;;;;;51.90;35.53;;;16.30;99.90;;;;;;5030540;28;20304;-78
2022/06/06 01:45:22;;;;;;;53.22;36.40;;;16.20;99.90;;;;;;5060898;28;20671;-78
2022/06/06 01:47:53;;;;;;;51.58;35.28;;;16.00;99.90;;;;;;5031873;28;20198;-78
2022/06/06 01:50:22;;;;;;;58.88;37.08;;;16.00;99.90;;;;;;5029280;28;20570;-78
2022/06/06 01:52:57;;;;;;;56.67;38.10;;;16.00;99.90;;;;;;5030154;28;20234;-78
2022/06/06 01:55:25;;;;;;;62.28;40.95;;;16.00;99.90;;;;;;5027802;28;20237;-78
2022/06/06 01:57:57;;;;;;;55.45;36.33;;;16.00;99.90;;;;;;5025791;28;20203;-78
2022/06/06 02:00:29;;;;;;;52.53;36.72;;;16.00;99.90;;;;;;5064565;28;20231;-78
2022/06/06 02:02:56;;;;;;;55.92;37.75;;;16.00;99.90;;;;;;5024124;28;20223;-78
2022/06/06 02:05:24;;;;;;;53.22;36.63;;;16.00;99.90;;;;;;5061290;28;20206;-78
2022/06/06 02:07:51;;;;;;;51.28;35.90;;;15.90;99.90;;;;;;5043766;28;20248;-78
2022/06/06 02:10:19;;;;;;;51.10;34.53;;;15.90;99.90;;;;;;5030176;28;20210;-78
2022/06/06 02:12:47;;;;;;;47.55;33.78;;;15.90;99.90;;;;;;5026812;28;20235;-78
2022/06/06 02:15:18;;;;;;;49.95;32.35;;;15.80;99.90;;;;;;5031169;28;20230;-78
2022/06/06 02:17:47;;;;;;;49.00;31.55;;;15.80;99.90;;;;;;5063938;28;20207;-78
2022/06/06 02:20:18;;;;;;;47.75;31.58;;;15.80;99.90;;;;;;5026094;28;20209;-78
2022/06/06 02:22:45;;;;;;;43.65;29.35;;;15.80;99.90;;;;;;5033818;28;20225;-78
2022/06/06 02:25:14;;;;;;;43.33;29.30;;;15.90;99.90;;;;;;5028774;28;20205;-78
2022/06/06 02:27:42;;;;;;;45.90;30.33;;;15.90;99.90;;;;;;5032712;28;20209;-78
2022/06/06 02:30:13;;;;;;;40.33;28.05;;;15.90;99.90;;;;;;5027854;28;20199;-78
2022/06/06 02:32:41;;;;;;;42.67;29.48;;;15.90;99.90;;;;;;5044889;28;20222;-79
2022/06/06 02:35:13;;;;;;;41.42;27.55;;;16.00;99.90;;;;;;5026683;28;20218;-78
2022/06/06 02:37:44;;;;;;;45.50;30.25;;;15.90;99.90;;;;;;5026999;28;20222;-78
2022/06/06 02:40:14;;;;;;;46.20;30.88;;;15.90;99.90;;;;;;5060353;28;20549;-79
2022/06/06 02:42:41;;;;;;;44.08;30.20;;;15.90;99.90;;;;;;5031500;28;20219;-79
2022/06/06 02:45:10;;;;;;;44.63;30.67;;;15.80;99.90;;;;;;5022845;28;20202;-78
2022/06/06 02:47:38;;;;;;;40.67;27.77;;;15.80;99.90;;;;;;5023452;28;20203;-80
2022/06/06 02:50:08;;;;;;;48.30;31.83;;;15.90;99.90;;;;;;5024008;28;20688;-78
2022/06/06 02:52:38;;;;;;;48.28;30.83;;;15.70;99.90;;;;;;5026390;28;20226;-78
2022/06/06 02:55:09;;;;;;;45.00;30.10;;;15.60;99.90;;;;;;5028071;28;20570;-78
2022/06/06 02:57:37;;;;;;;46.42;31.30;;;15.70;99.90;;;;;;5027041;28;20219;-78
2022/06/06 03:00:07;;;;;;;46.25;31.38;;;15.60;99.90;;;;;;5026336;28;20210;-78
2022/06/06 03:02:35;;;;;;;51.08;33.50;;;15.60;99.90;;;;;;5014233;28;20230;-78
2022/06/06 03:05:04;;;;;;;54.35;33.42;;;15.60;99.90;;;;;;5026064;28;20191;-78
2022/06/06 03:07:41;;;;;;;49.67;31.92;;;15.50;99.90;;;;;;5023733;28;20204;-78
2022/06/06 03:10:19;;;;;;;52.40;32.38;;;15.60;99.90;;;;;;5027288;28;20205;-78
2022/06/06 03:12:59;;;;;;;50.90;33.88;;;15.60;99.90;;;;;;5024323;28;20229;-78
2022/06/06 03:15:40;;;;;;;51.78;34.58;;;15.60;99.90;;;;;;5029352;28;20222;-78
2022/06/06 03:21:21;;;;;;;51.20;32.63;;;15.60;99.90;;;;;;5032383;28;20202;-78
2022/06/06 03:24:09;;;;;;;57.80;35.15;;;15.50;99.90;;;;;;5026018;28;20199;-79
2022/06/06 03:26:51;;;;;;;50.08;31.48;;;15.60;99.90;;;;;;5055888;28;20202;-78
2022/06/06 03:29:31;;;;;;;48.38;33.25;;;15.60;99.90;;;;;;5027210;28;20203;-79
2022/06/06 03:32:06;;;;;;;48.88;32.85;;;15.60;99.90;;;;;;5029881;28;20664;-78
2022/06/06 03:34:41;;;;;;;43.65;30.77;;;15.50;99.90;;;;;;5027754;28;20206;-78
2022/06/06 03:37:20;;;;;;;50.05;32.30;;;15.60;99.90;;;;;;5022542;28;20197;-79
2022/06/06 03:39:58;;;;;;;45.65;31.50;;;15.60;99.90;;;;;;5028012;28;20672;-78
2022/06/06 03:42:33;;;;;;;41.72;30.15;;;15.70;99.90;;;;;;5028069;28;20219;-78
2022/06/06 03:45:11;;;;;;;48.65;33.38;;;15.80;99.90;;;;;;5032971;28;20205;-79
2022/06/06 03:47:53;;;;;;;48.15;33.42;;;15.70;99.90;;;;;;5063396;28;20217;-79
2022/06/06 03:50:30;;;;;;;48.35;32.28;;;15.80;99.90;;;;;;5029021;28;20199;-78
2022/06/06 03:53:05;;;;;;;45.80;32.85;;;15.80;99.90;;;;;;5030363;28;20222;-78
2022/06/06 03:55:45;;;;;;;45.47;32.47;;;15.80;99.90;;;;;;5035773;28;20210;-78
2022/06/06 03:58:18;;;;;;;48.10;32.08;;;15.80;99.90;;;;;;5026821;28;20538;-78
2022/06/06 04:00:47;;;;;;;46.08;30.95;;;15.80;99.90;;;;;;5032453;28;20565;-78
2022/06/06 04:03:16;;;;;;;44.13;30.90;;;15.90;99.90;;;;;;5031553;28;20223;-78
2022/06/06 04:05:44;;;;;;;40.25;27.60;;;15.90;99.90;;;;;;5029282;28;20206;-78
2022/06/06 04:08:11;;;;;;;40.70;28.02;;;16.00;99.90;;;;;;5030889;28;20196;-78
2022/06/06 04:10:51;;;;;;;38.67;28.40;;;15.90;99.90;;;;;;5030371;28;20203;-78
2022/06/06 04:13:30;;;;;;;36.90;25.67;;;15.90;99.90;;;;;;5036952;28;20230;-78
2022/06/06 04:16:05;;;;;;;37.10;25.90;;;15.80;99.90;;;;;;5028369;28;20217;-78
2022/06/06 04:18:44;;;;;;;35.78;25.67;;;15.80;99.90;;;;;;5031672;28;20209;-79
2022/06/06 04:21:22;;;;;;;33.33;21.52;;;15.80;99.90;;;;;;5023153;28;20286;-78
2022/06/06 04:24:04;;;;;;;31.05;20.38;;;15.90;99.90;;;;;;5031626;28;20218;-78
2022/06/06 04:26:42;;;;;;;25.58;18.30;;;15.90;99.90;;;;;;5032288;28;20205;-78
2022/06/06 04:29:22;;;;;;;28.27;20.88;;;15.80;99.90;;;;;;5047166;28;20199;-78
2022/06/06 04:31:57;;;;;;;32.92;20.45;;;15.90;99.90;;;;;;5033002;28;20213;-78
2022/06/06 04:34:33;;;;;;;25.45;19.17;;;15.90;99.90;;;;;;5032710;28;20193;-79
2022/06/06 04:37:08;;;;;;;25.65;18.55;;;16.00;99.90;;;;;;5034396;28;20687;-78
2022/06/06 04:39:42;;;;;;;25.98;18.00;;;15.90;99.90;;;;;;5030580;28;20212;-78
2022/06/06 04:42:17;;;;;;;24.90;18.75;;;16.00;99.90;;;;;;5041949;28;20669;-78
2022/06/06 04:44:50;;;;;;;20.80;16.00;;;16.00;99.90;;;;;;5034564;28;20209;-78
2022/06/06 04:47:23;;;;;;;22.77;15.68;;;15.90;99.90;;;;;;5030594;28;20684;-78
2022/06/06 04:49:52;;;;;;;21.58;15.40;;;16.00;99.90;;;;;;5063381;28;20195;-78
2022/06/06 04:52:21;;;;;;;22.17;16.02;;;16.00;99.90;;;;;;5032933;28;20227;-78
2022/06/06 04:54:49;;;;;;;23.40;16.55;;;16.00;99.90;;;;;;5060340;28;20626;-78
2022/06/06 04:57:20;;;;;;;22.73;14.70;;;16.00;99.90;;;;;;5043429;28;20211;-78
2022/06/06 04:59:48;;;;;;;18.33;13.73;;;16.00;99.90;;;;;;5024475;28;20202;-79
2022/06/06 05:02:16;;;;;;;19.95;14.10;;;16.10;99.90;;;;;;5030968;28;20231;-78
2022/06/06 05:04:44;;;;;;;18.67;13.65;;;16.00;99.90;;;;;;5030441;28;20203;-78
2022/06/06 05:07:38;;;;;;;17.90;13.77;;;15.90;99.90;;;;;;5026575;28;20195;-78
2022/06/06 05:10:38;;;;;;;17.88;12.20;;;15.90;99.90;;;;;;5030486;28;20199;-79
2022/06/06 05:13:38;;;;;;;15.15;12.20;;;15.90;99.90;;;;;;5015364;28;20222;-78
2022/06/06 05:16:42;;;;;;;14.07;10.98;;;15.90;99.90;;;;;;5030149;28;20226;-78
2022/06/06 05:19:48;;;;;;;13.48;10.90;;;15.90;99.90;;;;;;5028382;28;20536;-78
2022/06/06 05:22:31;;;;;;;13.35;11.02;;;15.80;99.90;;;;;;5030565;28;20241;-77
2022/06/06 05:25:09;;;;;;;14.00;10.52;;;15.90;99.90;;;;;;5029036;28;20195;-78
2022/06/06 05:28:22;;;;;;;14.40;10.60;;;15.90;99.90;;;;;;5028477;28;20198;-78
2022/06/06 05:30:56;;;;;;;12.10;9.93;;;15.90;99.90;;;;;;5023520;28;20207;-79
2022/06/06 05:33:29;;;;;;;15.70;11.00;;;16.00;99.90;;;;;;5032037;28;20218;-78
2022/06/06 05:36:35;;;;;;;16.10;11.45;;;15.90;99.90;;;;;;5026813;28;20614;-77
2022/06/06 05:39:24;;;;;;;13.48;10.27;;;15.90;99.90;;;;;;5026797;28;20202;-78
2022/06/06 05:42:15;;;;;;;12.30;9.60;;;15.90;99.90;;;;;;5020674;28;20218;-78
2022/06/06 05:44:56;;;;;;;16.65;11.88;;;15.90;99.90;;;;;;5042271;28;20221;-78
2022/06/06 05:47:34;;;;;;;14.40;11.23;;;15.90;99.90;;;;;;5028046;28;20195;-78
2022/06/06 05:50:19;;;;;;;14.65;10.63;;;15.90;99.90;;;;;;5027738;28;20203;-78
2022/06/06 05:53:20;;;;;;;16.52;10.90;;;16.00;99.90;;;;;;5024753;28;20237;-78
2022/06/06 05:56:03;;;;;;;12.63;10.18;;;16.00;99.90;;;;;;5026228;28;20211;-78
2022/06/06 05:58:53;;;;;;;13.60;10.60;;;15.90;99.90;;;;;;5023203;28;20669;-79
2022/06/06 06:01:41;;;;;;;11.30;9.38;;;15.90;99.90;;;;;;5042111;28;20198;-78
2022/06/06 06:04:36;;;;;;;10.70;9.32;;;16.00;99.90;;;;;;5030063;28;20735;-78
2022/06/06 06:07:13;;;;;;;11.75;9.90;;;15.90;99.90;;;;;;5030270;28;20660;-78
2022/06/06 06:10:03;;;;;;;13.05;9.75;;;15.90;99.90;;;;;;5026293;28;20202;-78
2022/06/06 06:13:28;;;;;;;11.07;9.38;;;16.00;99.90;;;;;;5044858;28;20218;-79
2022/06/06 06:15:59;;;;;;;11.13;9.45;;;16.10;99.90;;;;;;4986992;28;20208;-78
2022/06/06 06:18:35;;;;;;;12.18;10.13;;;16.20;99.90;;;;;;4986463;28;20206;-80
2022/06/06 06:21:08;;;;;;;10.45;9.35;;;16.20;99.90;;;;;;5016059;28;20202;-79
2022/06/06 06:23:41;;;;;;;10.25;8.35;;;16.40;99.90;;;;;;5028481;28;20238;-79
2022/06/06 06:26:09;;;;;;;8.93;7.40;;;16.50;99.90;;;;;;5038152;28;20203;-78
2022/06/06 06:28:49;;;;;;;10.63;7.72;;;16.30;99.90;;;;;;5026568;28;20207;-78
2022/06/06 06:31:33;;;;;;;10.73;7.72;;;16.30;99.90;;;;;;5019775;28;20199;-78
2022/06/06 06:34:16;;;;;;;11.95;8.73;;;16.40;99.90;;;;;;5057894;28;20679;-78
2022/06/06 06:36:46;;;;;;;9.80;7.90;;;16.30;99.90;;;;;;5020084;28;20219;-78
2022/06/06 06:39:35;;;;;;;9.18;7.72;;;16.30;99.90;;;;;;5016708;28;20770;-78
2022/06/06 06:42:21;;;;;;;9.93;7.57;;;16.30;99.90;;;;;;5025194;28;20229;-78
2022/06/06 06:44:54;;;;;;;8.65;7.35;;;16.20;99.90;;;;;;5025921;28;21592;-80
2022/06/06 06:47:28;;;;;;;9.50;7.15;;;16.30;99.90;;;;;;5027690;28;20197;-78
2022/06/06 06:50:08;;;;;;;9.75;6.90;;;16.10;99.90;;;;;;5029065;28;20198;-78
2022/06/06 06:52:51;;;;;;;8.82;7.32;;;16.10;99.90;;;;;;5032148;28;20233;-79
2022/06/06 06:55:31;;;;;;;7.80;6.32;;;16.40;99.90;;;;;;5026021;28;20209;-81
2022/06/06 06:58:14;;;;;;;8.65;6.68;;;16.50;99.90;;;;;;5030357;28;20225;-78
2022/06/06 07:00:50;;;;;;;7.53;6.65;;;16.60;99.90;;;;;;5024977;28;20199;-78
2022/06/06 07:09:47;;;;;;;6.40;5.55;;;16.80;99.90;;;;;;5024833;28;20225;-79
2022/06/06 07:12:28;;;;;;;6.70;6.00;;;16.80;99.90;;;;;;5033207;28;20218;-80
2022/06/06 07:15:10;;;;;;;7.10;4.95;;;16.80;99.90;;;;;;5054116;28;20213;-78
2022/06/06 07:17:43;;;;;;;5.55;4.88;;;16.90;99.90;;;;;;5030576;28;20247;-78
2022/06/06 07:20:13;;;;;;;6.15;5.22;;;17.00;99.90;;;;;;5028206;28;20202;-79
2022/06/06 07:23:03;;;;;;;5.22;4.60;;;16.90;99.90;;;;;;5028083;28;20227;-78
2022/06/06 07:25:37;;;;;;;5.47;4.68;;;17.00;99.90;;;;;;5034922;28;20190;-78
2022/06/06 07:28:06;;;;;;;6.30;5.35;;;17.00;99.90;;;;;;5025930;28;20198;-78
2022/06/06 07:30:36;;;;;;;6.55;4.93;;;17.10;99.90;;;;;;5030471;28;20226;-78
2022/06/06 07:33:31;;;;;;;5.50;3.97;;;17.10;99.90;;;;;;5030398;28;20281;-78
2022/06/06 07:36:09;;;;;;;4.47;4.00;;;17.00;99.90;;;;;;5032875;28;20207;-78
2022/06/06 07:38:54;;;;;;;4.57;4.15;;;17.30;99.90;;;;;;5030779;28;20222;-78
2022/06/06 07:41:28;;;;;;;5.13;4.57;;;17.20;99.90;;;;;;5027960;28;20195;-79
2022/06/06 07:44:11;;;;;;;5.20;4.60;;;17.30;99.90;;;;;;5039472;28;20218;-79
2022/06/06 07:46:55;;;;;;;6.18;5.47;;;17.20;99.90;;;;;;5030770;28;20226;-77
2022/06/06 07:49:31;;;;;;;6.70;6.00;;;17.20;99.90;;;;;;5024051;28;20565;-78
2022/06/06 07:52:07;;;;;;;6.95;5.22;;;17.10;99.90;;;;;;5024557;28;20713;-81
2022/06/06 07:54:48;;;;;;;7.40;5.20;;;17.10;99.90;;;;;;5024367;28;20571;-81
2022/06/06 07:57:24;;;;;;;6.82;5.57;;;17.40;99.90;;;;;;5027122;28;20755;-79
2022/06/06 08:00:02;;;;;;;5.68;4.57;;;17.50;99.90;;;;;;5026836;28;20202;-81
2022/06/06 08:02:58;;;;;;;4.70;4.25;;;17.50;99.90;;;;;;5031560;28;20225;-81
2022/06/06 08:06:03;;;;;;;4.18;3.70;;;17.50;99.90;;;;;;5027580;28;20199;-78
2022/06/06 08:08:56;;;;;;;3.63;3.33;;;17.60;99.90;;;;;;5017333;28;20214;-81
2022/06/06 08:11:37;;;;;;;3.97;2.95;;;17.50;99.90;;;;;;5027393;28;20202;-79
2022/06/06 08:14:15;;;;;;;4.35;2.72;;;17.60;99.90;;;;;;5028791;28;20229;-79
2022/06/06 08:16:48;;;;;;;3.85;2.88;;;17.60;99.90;;;;;;5040431;28;20676;-78
2022/06/06 08:19:36;;;;;;;3.33;2.35;;;17.60;99.90;;;;;;5030611;28;20207;-79
2022/06/06 08:22:04;;;;;;;3.40;2.53;;;17.50;99.90;;;;;;5024304;28;20215;-80
2022/06/06 08:24:38;;;;;;;3.55;2.20;;;17.50;99.90;;;;;;5021933;28;20195;-81
2022/06/06 08:27:11;;;;;;;3.63;2.22;;;17.60;99.90;;;;;;5028247;28;20205;-83
2022/06/06 08:29:50;;;;;;;3.63;2.15;;;17.60;99.90;;;;;;5028851;28;20243;-83
2022/06/06 08:32:18;;;;;;;2.92;2.33;;;17.60;99.90;;;;;;5026156;28;20214;-85
2022/06/06 08:34:47;;;;;;;2.70;1.90;;;17.50;99.90;;;;;;5021798;28;20208;-81
2022/06/06 08:37:47;;;;;;;2.20;2.00;;;17.60;99.90;;;;;;5025433;28;20660;-81
2022/06/06 08:40:53;;;;;;;2.33;2.10;;;17.70;99.90;;;;;;5015903;28;20206;-81
2022/06/06 08:43:35;;;;;;;2.42;2.15;;;17.60;99.90;;;;;;5017279;28;20227;-80
2022/06/06 08:46:19;;;;;;;2.60;2.05;;;17.70;99.90;;;;;;5019230;28;20207;-87
2022/06/06 08:50:44;;;;;;;2.10;1.90;;;17.80;99.90;;;;;;5019861;28;20649;-80
2022/06/06 08:52:11;;;;;;;2.20;1.88;;;18.20;99.90;;;;;;5024952;28;20230;-82
2022/06/06 08:55:26;;;;;;;2.20;1.40;;;18.20;99.90;;;;;;5040989;28;20195;-82
2022/06/06 08:58:23;;;;;;;4.28;1.95;;;18.30;99.80;;;;;;5023261;28;20230;-78
2022/06/06 09:01:02;;;;;;;2.55;1.98;;;18.20;99.90;;;;;;5024669;28;20210;-78
2022/06/06 09:04:04;;;;;;;2.10;1.38;;;18.10;99.60;;;;;;5022134;28;20222;-79
2022/06/06 09:07:10;;;;;;;3.83;1.45;;;18.00;99.40;;;;;;5023991;28;20198;-78
2022/06/06 09:10:18;;;;;;;2.40;1.55;;;18.00;99.10;;;;;;5019390;28;20207;-79
2022/06/06 09:13:12;;;;;;;1.85;1.52;;;18.00;99.90;;;;;;5050444;28;20227;-78
2022/06/06 09:16:19;;;;;;;2.25;1.30;;;18.00;99.90;;;;;;5026706;28;20203;-78
2022/06/06 09:19:25;;;;;;;1.92;1.42;;;18.00;99.50;;;;;;5017722;28;20236;-79
2022/06/06 09:22:02;;;;;;;4.80;1.58;;;18.00;99.90;;;;;;5028336;28;20246;-79
2022/06/06 09:25:12;;;;;;;1.88;1.23;;;18.20;99.90;;;;;;5026687;28;20213;-80
2022/06/06 09:28:36;;;;;;;1.58;1.40;;;18.30;99.60;;;;;;5041318;28;20202;-79
2022/06/06 09:31:38;;;;;;;2.33;1.05;;;18.30;99.70;;;;;;5030429;28;20198;-79
2022/06/06 09:34:37;;;;;;;4.47;1.40;;;18.30;98.20;;;;;;5015699;28;20716;-78
2022/06/06 09:37:09;;;;;;;2.72;1.05;;;18.40;98.30;;;;;;5030081;28;20210;-79
2022/06/06 09:39:50;;;;;;;1.90;0.80;;;18.30;98.20;;;;;;5031845;28;20218;-78
2022/06/06 09:42:37;;;;;;;2.40;1.10;;;18.30;99.20;;;;;;5028110;28;20245;-79
2022/06/06 09:45:30;;;;;;;1.58;1.17;;;18.40;99.80;;;;;;5033664;28;20677;-80
2022/06/06 09:48:36;;;;;;;4.40;1.35;;;18.40;99.50;;;;;;5026759;28;20195;-80
2022/06/06 09:51:50;;;;;;;1.80;1.30;;;18.40;99.50;;;;;;5024263;28;20195;-79
2022/06/06 10:01:17;;;;;;;1.95;1.00;;;18.50;98.80;;;;;;5029123;28;20810;-79
2022/06/06 10:04:33;;;;;;;1.02;0.85;;;18.70;98.60;;;;;;5029463;28;20230;-79
2022/06/06 10:07:33;;;;;;;1.60;0.93;;;19.10;99.30;;;;;;5018610;28;20229;-78
2022/06/06 10:10:38;;;;;;;2.10;0.88;;;18.80;97.50;;;;;;5032746;28;20206;-78
2022/06/06 10:13:18;;;;;;;1.35;0.80;;;18.80;97.50;;;;;;5022393;28;20223;-79
2022/06/06 10:16:03;;;;;;;2.65;1.13;;;18.70;97.30;;;;;;5043867;28;20213;-79
2022/06/06 10:18:59;;;;;;;3.28;1.17;;;18.90;97.60;;;;;;5024917;28;20218;-79
2022/06/06 10:21:55;;;;;;;3.20;1.00;;;19.00;97.70;;;;;;5049755;28;20202;-79
2022/06/06 10:25:09;;;;;;;1.15;1.00;;;19.00;97.60;;;;;;5031746;28;20199;-80
2022/06/06 10:28:02;;;;;;;1.02;0.85;;;19.20;97.80;;;;;;4970720;28;20211;-80
2022/06/06 10:30:42;;;;;;;0.88;0.88;;;19.00;96.60;;;;;;4981954;28;20686;-80
2022/06/06 10:33:49;;;;;;;1.90;0.82;;;19.10;96.50;;;;;;5010098;28;20218;-79
2022/06/06 10:36:36;;;;;;;2.30;1.25;;;19.30;96.60;;;;;;5030817;28;20199;-79
2022/06/06 10:39:27;;;;;;;2.03;0.95;;;19.40;96.00;;;;;;5027737;28;20207;-79
2022/06/06 10:42:23;;;;;;;1.80;1.00;;;19.30;96.20;;;;;;5022986;28;20226;-79
2022/06/06 10:45:22;;;;;;;1.45;0.90;;;19.60;96.30;;;;;;5060481;28;20202;-79
2022/06/06 10:48:18;;;;;;;1.88;0.80;;;19.50;95.10;;;;;;5021709;28;20591;-79
2022/06/06 10:51:39;;;;;;;1.73;0.82;;;19.90;96.00;;;;;;5027724;28;20199;-78
2022/06/06 10:54:49;;;;;;;1.50;0.70;;;19.50;94.20;;;;;;5028522;28;20199;-78
2022/06/06 10:57:48;;;;;;;0.80;0.80;;;19.50;93.90;;;;;;5005430;28;20571;-82
2022/06/06 11:00:31;;;;;;;1.10;1.00;;;19.30;94.10;;;;;;5026196;28;20203;-78
2022/06/06 11:03:43;;;;;;;2.65;0.90;;;19.40;94.50;;;;;;5028039;28;20226;-78
2022/06/06 11:06:47;;;;;;;2.38;0.88;;;19.60;95.20;;;;;;5029785;28;20206;-78
2022/06/06 11:09:58;;;;;;;0.70;0.57;;;19.60;94.10;;;;;;4986468;28;20223;-79
2022/06/06 11:13:01;;;;;;;1.40;0.90;;;19.70;95.20;;;;;;5000540;28;20732;-78
2022/06/06 11:15:37;;;;;;;1.63;1.02;;;19.30;93.40;;;;;;5031920;28;20199;-79
2022/06/06 11:18:37;;;;;;;1.00;0.80;;;19.20;93.50;;;;;;5030719;28;20700;-80
2022/06/06 11:21:30;;;;;;;1.67;0.90;;;19.00;93.60;;;;;;5032703;28;20195;-80
2022/06/06 11:24:09;;;;;;;0.82;0.82;;;19.00;94.40;;;;;;5030606;28;20203;-78
2022/06/06 11:27:06;;;;;;;1.60;0.90;;;18.90;94.60;;;;;;5030024;28;20213;-78
2022/06/06 11:30:07;;;;;;;2.00;1.10;;;18.90;94.90;;;;;;5020120;28;20200;-78
2022/06/06 11:33:01;;;;;;;1.23;1.00;;;19.00;94.60;;;;;;5029340;28;20218;-79
2022/06/06 11:35:37;;;;;;;0.93;0.70;;;18.10;95.50;;;;;;5036511;28;20203;-78
2022/06/06 11:38:34;;;;;;;1.85;0.85;;;17.90;96.70;;;;;;5034516;28;20219;-78
2022/06/06 11:41:15;;;;;;;1.02;0.60;;;18.50;96.30;;;;;;5032328;28;20184;-79
2022/06/06 11:44:14;;;;;;;1.92;0.68;;;18.20;96.20;;;;;;5032600;28;20245;-82
2022/06/06 11:47:12;;;;;;;1.15;0.68;;;18.10;96.70;;;;;;5025396;28;20203;-78
2022/06/06 11:50:09;;;;;;;1.73;1.00;;;18.00;98.00;;;;;;5025781;28;20199;-80
2022/06/06 11:53:17;;;;;;;1.27;1.05;;;17.80;99.10;;;;;;5030746;28;20222;-81
2022/06/06 11:56:03;;;;;;;1.15;0.82;;;17.70;99.90;;;;;;5032321;28;20245;-81
2022/06/06 11:59:24;;;;;;;2.47;0.98;;;17.40;99.90;;;;;;5031384;28;20191;-80
2022/06/06 12:02:33;;;;;;;1.73;1.13;;;17.20;99.90;;;;;;5025885;28;20230;-79
2022/06/06 12:05:31;;;;;;;1.75;0.98;;;17.00;99.90;;;;;;5024034;28;20210;-80
2022/06/06 12:08:35;;;;;;;1.48;0.65;;;16.90;99.90;;;;;;5028148;28;20301;-80
2022/06/06 12:11:42;;;;;;;2.42;1.05;;;17.10;99.90;;;;;;5024416;28;20210;-81
2022/06/06 12:14:38;;;;;;;2.35;1.00;;;17.50;99.90;;;;;;5027659;28;20220;-81
2022/06/06 12:17:16;;;;;;;0.95;0.80;;;17.70;99.90;;;;;;5025926;28;20199;-82
2022/06/06 12:20:11;;;;;;;2.08;0.90;;;17.90;99.90;;;;;;5030692;28;20203;-80
2022/06/06 12:23:09;;;;;;;0.90;0.90;;;18.10;99.90;;;;;;5029324;28;20224;-81
2022/06/06 12:25:59;;;;;;;2.80;0.80;;;18.00;99.90;;;;;;5040539;28;20211;-81
2022/06/06 12:29:09;;;;;;;1.20;0.90;;;17.90;99.90;;;;;;5061865;28;20202;-81
2022/06/06 12:31:57;;;;;;;1.08;0.90;;;17.90;99.90;;;;;;5026237;28;20210;-81
2022/06/06 12:34:44;;;;;;;3.67;0.98;;;18.10;99.90;;;;;;5029583;28;20196;-81
2022/06/06 12:37:15;;;;;;;1.27;0.80;;;18.70;98.80;;;;;;5033934;28;20198;-80
2022/06/06 12:39:58;;;;;;;1.00;0.90;;;18.80;97.20;;;;;;5037106;28;20222;-81
2022/06/06 12:42:35;;;;;;;0.95;0.70;;;18.90;96.50;;;;;;5052951;28;20731;-81
2022/06/06 12:45:28;;;;;;;1.58;0.95;;;19.10;96.40;;;;;;5035497;28;20198;-81
2022/06/06 12:48:17;;;;;;;1.40;0.95;;;19.40;95.80;;;;;;5031282;28;20210;-81
2022/06/06 12:50:55;;;;;;;3.65;0.93;;;19.90;95.70;;;;;;5035293;28;20206;-81
2022/06/06 12:54:03;;;;;;;0.70;0.63;;;20.10;94.10;;;;;;5063579;28;20214;-81
2022/06/06 12:56:53;;;;;;;1.50;0.98;;;20.30;93.30;;;;;;5041859;28;20199;-81
2022/06/06 12:59:34;;;;;;;2.28;1.00;;;20.30;91.70;;;;;;5029964;28;20211;-81
2022/06/06 13:02:14;;;;;;;1.23;1.00;;;20.10;91.50;;;;;;5034465;28;20223;-81
2022/06/06 13:05:06;;;;;;;1.50;1.00;;;20.10;91.80;;;;;;5027984;28;20221;-81
2022/06/06 13:07:53;;;;;;;1.48;1.02;;;20.80;92.00;;;;;;5026812;28;20657;-81
2022/06/06 13:10:39;;;;;;;2.28;1.00;;;20.80;91.30;;;;;;5033030;28;20657;-81
2022/06/06 13:13:28;;;;;;;1.13;0.88;;;20.50;90.70;;;;;;5032607;28;20219;-81
2022/06/06 13:16:05;;;;;;;2.88;1.20;;;20.10;91.80;;;;;;5031980;28;20200;-82
2022/06/06 13:19:08;;;;;;;1.02;0.93;;;20.10;93.20;;;;;;5028246;28;20203;-81
2022/06/06 13:21:50;;;;;;;2.55;1.10;;;20.10;93.90;;;;;;5029503;28;20202;-81
2022/06/06 13:25:06;;;;;;;2.30;1.13;;;20.20;94.50;;;;;;5036304;28;20190;-81
2022/06/06 13:27:56;;;;;;;1.42;1.20;;;20.00;94.30;;;;;;5033840;28;20221;-81
2022/06/06 13:30:41;;;;;;;2.63;1.30;;;20.00;94.60;;;;;;5029211;28;20202;-81
2022/06/06 13:33:24;;;;;;;1.35;1.00;;;20.60;93.60;;;;;;5031636;28;20234;-82
2022/06/06 13:36:06;;;;;;;1.65;1.00;;;20.70;93.00;;;;;;5061161;28;20206;-81
2022/06/06 13:38:53;;;;;;;1.10;1.00;;;20.90;92.80;;;;;;5027062;28;20199;-80
2022/06/06 13:41:33;;;;;;;2.17;0.90;;;21.00;92.20;;;;;;5028679;28;20226;-80
2022/06/06 13:44:13;;;;;;;1.13;0.90;;;21.10;92.10;;;;;;5029305;28;20210;-79
2022/06/06 13:46:57;;;;;;;2.63;1.10;;;21.30;91.30;;;;;;5059249;28;22037;-82
2022/06/06 13:49:54;;;;;;;1.58;0.80;;;21.40;90.80;;;;;;5061058;28;20214;-79
2022/06/06 13:52:36;;;;;;;1.48;0.90;;;21.60;90.20;;;;;;5046633;28;20219;-80
2022/06/06 13:55:32;;;;;;;3.63;1.55;;;21.20;90.20;;;;;;5035195;28;20202;-80
2022/06/06 13:58:25;;;;;;;1.73;1.20;;;21.40;89.40;;;;;;5034738;28;20205;-80
2022/06/06 14:01:05;;;;;;;2.05;1.15;;;21.40;87.80;;;;;;5030915;28;20211;-80
2022/06/06 14:03:57;;;;;;;3.60;1.10;;;21.20;87.50;;;;;;5033812;28;20237;-80
2022/06/06 14:06:38;;;;;;;1.42;0.95;;;21.50;86.50;;;;;;5058682;28;20691;-80
2022/06/06 14:09:06;;;;;;;1.17;0.90;;;21.40;87.10;;;;;;5033893;28;20217;-80
2022/06/06 14:12:03;;;;;;;1.50;1.25;;;21.60;86.70;;;;;;5032581;28;20199;-80
2022/06/06 14:14:33;;;;;;;1.25;0.90;;;21.70;86.80;;;;;;5023140;28;20204;-80
2022/06/06 14:17:11;;;;;;;1.20;1.10;;;21.60;87.40;;;;;;5049303;28;20202;-80